Mendoza, Argentina

3:27 AM ART on October 26, 2014 (GMT -0300)
El Plumerillo | Change Station
CLOSE
Current Station
Airport
Location: Mendoza,
Elevation: 2310 ft
Nearby Weather Stations

Elev 2310 ft 32.83 °S, 68.79 °W | Updated 27 minutes ago

Clear
Clear
79 °F
Feels Like 79 °F
N
4
Wind Variable Wind from South

Today
High -- | Low -- °F
--% Chance of Precip.
Yesterday
High -- | Low -- °F
Precip. -- in
6:42 AM 7:56 PM
Waxing Crescent, 6% visible
Pressure 29.71 in
Visibility -9999.0 miles
Clouds
Dew Point 57 °F
Humidity 47%
Rainfall 0.00 in
Snow Depth Not available.
UV Not available.
Pollen Not available.
Air Quality Not available.
Flu Activity Not available.
METAR SAME 260600Z 18003KT CAVOK 26/14 Q1006

More Conditions Fewer Conditions

Pressure 29.71 in
Visibility -9999.0 miles
Clouds
Dew Point 57 °F
Humidity 47%
Rainfall 0.00 in
Snow Depth Not available.
UV Not available.
Pollen Not available.
Air Quality Not available.
Flu Activity Not available.
METAR SAME 260600Z 18003KT CAVOK 26/14 Q1006

More Conditions Fewer Conditions

10-Day Weather Forecast

Almanac

Astronomy

Oct. 26, 2014 Rise Set
Actual Time 6:42 AM ART 7:56 PM ART
Civil Twilight 6:16 AM ART 8:22 PM ART
Nautical Twilight 5:45 AM ART 8:53 PM ART
Astronomical Twilight 5:14 AM ART 9:24 PM ART
Moon 8:40 AM ART 10:44 PM ART
Length of Visible Light 14h 05m
Length of Day
13h 14m
Tomorrow will be 1m 52s longer.
Waxing Crescent, 6% of the Moon is Illuminated
Today
Waxing Crescent
Oct 30
First Quarter
Nov 6
Full
Nov 14
Last Quarter
Nov 22
New

Yesterday's Extremes

Country Highs Country Lows

Community

WunderPhotos

Upload Photos

1,765,114 photos uploaded!

Nearby

Snow Depth

Not available.

Earthquake Activity

City Distance Mag. Time & Date
No recent earthquake activity has been reported nearby.
Minimum magnitude displayed is 2.5.

Coastal Water Temperatures

Place Temperature
No Stations Reporting

Nearby Weather Stations